Terminal Aerodrome Forecast
Issued by NWS

Home | Current Version | Previous Version | Text Only | Print | Product List | Glossary On
Versions: 1 2 3 4 5 6 7 8 9 10 11 12 13 14
000
FTUS45 KGJT 270542
TAFMTJ
TAF
KMTJ 270542Z 2706/2806 18004KT P6SM OVC100
     FM271100 22004KT P6SM VCSH BKN045
     FM271800 28012KT P6SM SCT100
     FM272300 29014KT P6SM BKN130
     FM280200 29007KT P6SM SCT130=

USA.gov is the U.S. government's official web portal to all federal, state and local government web resources and services.